createdAt,value
2023-03-28T00:01:01.323Z,3.57
2023-03-28T00:03:29.658Z,1.37
2023-03-28T00:06:00.689Z,4.20
2023-03-28T00:08:28.792Z,3.70
2023-03-28T00:11:08.252Z,5.07
2023-03-28T00:13:35.387Z,1.73
2023-03-28T00:16:05.767Z,3.83
2023-03-28T00:18:39.022Z,4.50
2023-03-28T00:21:19.529Z,3.60
2023-03-28T00:23:46.499Z,8.70
2023-03-28T00:26:13.479Z,4.53
2023-03-28T00:28:40.327Z,1.80
2023-03-28T00:31:08.224Z,2.03
2023-03-28T00:33:35.066Z,1.80
2023-03-28T00:36:02.007Z,3.10
2023-03-28T00:38:29.275Z,5.83
2023-03-28T00:40:57.739Z,2.00
2023-03-28T00:43:40.818Z,4.23
2023-03-28T00:46:14.118Z,1.67
2023-03-28T00:48:51.268Z,2.80
2023-03-28T00:51:21.542Z,3.27
2023-03-28T00:53:49.650Z,4.40
2023-03-28T00:56:20.753Z,2.40
2023-03-28T00:58:48.639Z,4.00
2023-03-28T01:01:17.686Z,3.20
2023-03-28T01:03:52.223Z,3.83
2023-03-28T01:06:21.593Z,3.63
2023-03-28T01:08:48.942Z,3.53
2023-03-28T01:11:16.281Z,12.07
2023-03-28T01:13:48.614Z,3.83
2023-03-28T01:16:16.734Z,2.57
2023-03-28T01:18:51.379Z,3.70
2023-03-28T01:21:39.151Z,4.37
2023-03-28T01:24:40.473Z,4.47
2023-03-28T01:27:47.022Z,2.43
2023-03-28T01:30:36.931Z,5.17
2023-03-28T01:33:43.450Z,5.30
2023-03-28T01:36:49.953Z,2.90
2023-03-28T01:39:25.178Z,4.40
2023-03-28T01:42:14.869Z,5.07
2023-03-28T01:44:47.656Z,4.30
2023-03-28T01:47:23.046Z,7.57
2023-03-28T01:50:10.685Z,5.67
2023-03-28T01:52:56.401Z,4.33
2023-03-28T01:55:30.193Z,4.60
2023-03-28T01:58:12.586Z,4.13
2023-03-28T02:00:46.028Z,4.90
2023-03-28T02:03:18.631Z,7.80
2023-03-28T02:05:48.039Z,4.83
2023-03-28T02:08:16.607Z,5.60
2023-03-28T02:10:45.634Z,7.17
2023-03-28T02:13:18.597Z,4.47
2023-03-28T02:15:50.412Z,4.27
2023-03-28T02:18:23.663Z,5.07
2023-03-28T02:20:53.612Z,7.90
2023-03-28T02:23:26.979Z,3.93
2023-03-28T02:25:53.735Z,4.40
2023-03-28T02:28:22.451Z,6.23
2023-03-28T02:30:49.517Z,3.53
2023-03-28T02:33:37.675Z,6.83
2023-03-28T02:36:13.870Z,3.47
2023-03-28T02:38:47.054Z,3.20
2023-03-28T02:41:14.836Z,7.13
2023-03-28T02:44:02.409Z,5.93
2023-03-28T02:46:31.703Z,5.70
2023-03-28T02:49:18.368Z,7.50
2023-03-28T02:51:58.586Z,4.43
2023-03-28T02:54:30.394Z,4.33
2023-03-28T02:57:04.242Z,4.50
2023-03-28T02:59:58.397Z,6.90
2023-03-28T03:02:25.080Z,4.43
2023-03-28T03:04:51.806Z,6.53
2023-03-28T03:07:19.123Z,4.10
2023-03-28T03:09:46.825Z,3.50
2023-03-28T03:12:14.099Z,7.47
2023-03-28T03:14:42.033Z,8.30
2023-03-28T03:17:08.818Z,2.40
2023-03-28T03:19:36.329Z,6.57
2023-03-28T03:22:03.694Z,7.67
2023-03-28T03:24:30.411Z,8.17
2023-03-28T03:26:57.091Z,9.27
2023-03-28T03:29:23.775Z,9.33
2023-03-28T03:31:50.790Z,5.83
2023-03-28T03:34:17.585Z,5.60
2023-03-28T03:36:44.579Z,6.20
2023-03-28T03:39:11.286Z,7.53
2023-03-28T03:41:38.051Z,3.73
2023-03-28T03:44:04.955Z,6.77
2023-03-28T03:46:31.627Z,9.77
2023-03-28T03:48:58.416Z,5.73
2023-03-28T03:51:25.704Z,5.90
2023-03-28T03:53:52.471Z,5.73
2023-03-28T03:56:19.195Z,8.47
2023-03-28T03:58:45.816Z,5.40
2023-03-28T04:01:15.579Z,5.37
2023-03-28T04:03:42.924Z,4.87
2023-03-28T04:06:09.720Z,6.77
2023-03-28T04:08:36.537Z,3.63
2023-03-28T04:11:03.485Z,5.37
2023-03-28T04:13:30.121Z,6.93
2023-03-28T04:15:56.825Z,4.20
2023-03-28T04:18:23.713Z,5.47
2023-03-28T04:20:55.239Z,5.03
2023-03-28T04:23:25.802Z,7.13
2023-03-28T04:25:58.536Z,7.00
2023-03-28T04:28:25.925Z,5.43
2023-03-28T04:30:54.543Z,6.67
2023-03-28T04:33:25.302Z,4.43
2023-03-28T04:35:57.207Z,8.30
2023-03-28T04:38:26.172Z,4.87
2023-03-28T04:40:57.729Z,4.87
2023-03-28T04:43:25.767Z,5.70
2023-03-28T04:45:53.983Z,9.17
2023-03-28T04:48:21.298Z,5.93
2023-03-28T04:50:48.144Z,6.30
2023-03-28T04:53:16.108Z,7.83
2023-03-28T04:55:44.054Z,7.93
2023-03-28T04:58:10.794Z,3.73
2023-03-28T05:00:39.338Z,4.67
2023-03-28T05:03:12.968Z,6.60
2023-03-28T05:05:40.544Z,5.00
2023-03-28T05:08:07.437Z,3.47
2023-03-28T05:10:34.118Z,4.50
2023-03-28T05:13:00.772Z,4.23
2023-03-28T05:15:27.594Z,6.43
2023-03-28T05:17:54.309Z,6.83
2023-03-28T05:20:21.177Z,8.97
2023-03-28T05:22:48.044Z,4.93
2023-03-28T05:25:14.809Z,4.97
2023-03-28T05:27:41.789Z,4.00
2023-03-28T05:30:10.321Z,6.10
2023-03-28T05:32:38.716Z,4.90
2023-03-28T05:35:07.439Z,6.87
2023-03-28T05:37:34.427Z,7.27
2023-03-28T05:40:01.183Z,4.53
2023-03-28T05:42:27.818Z,3.80
2023-03-28T05:44:54.536Z,11.43
2023-03-28T05:47:21.202Z,3.57
2023-03-28T05:49:47.828Z,5.60
2023-03-28T05:52:14.533Z,7.30
2023-03-28T05:54:41.246Z,4.70
2023-03-28T05:57:18.013Z,4.67
2023-03-28T05:59:44.759Z,8.47
2023-03-28T06:02:13.626Z,8.50
2023-03-28T06:04:40.322Z,5.00
2023-03-28T06:07:07.830Z,5.40
2023-03-28T06:09:35.110Z,3.83
2023-03-28T06:12:03.249Z,8.10
2023-03-28T06:14:30.580Z,8.50
2023-03-28T06:16:57.727Z,5.13
2023-03-28T06:19:24.986Z,6.30
2023-03-28T06:21:52.159Z,4.67
2023-03-28T06:24:18.859Z,9.90
2023-03-28T06:26:45.775Z,6.07
2023-03-28T06:29:12.583Z,9.07
2023-03-28T06:31:39.377Z,7.10
2023-03-28T06:34:06.424Z,3.87
2023-03-28T06:36:33.342Z,7.30
2023-03-28T06:39:01.392Z,3.20
2023-03-28T06:41:28.242Z,7.73
2023-03-28T06:43:54.971Z,3.53
2023-03-28T06:46:21.688Z,2.57
2023-03-28T06:48:48.361Z,2.40
2023-03-28T06:51:15.411Z,13.13
2023-03-28T06:53:42.121Z,4.23
2023-03-28T06:56:09.150Z,6.83
2023-03-28T06:58:35.890Z,5.83
2023-03-28T07:01:02.810Z,3.67
2023-03-28T07:03:30.295Z,3.30
2023-03-28T07:05:57.501Z,4.23
2023-03-28T07:08:24.529Z,6.33
2023-03-28T07:10:51.191Z,2.27
2023-03-28T07:13:17.905Z,5.37
2023-03-28T07:15:44.543Z,2.83
2023-03-28T07:18:11.204Z,3.47
2023-03-28T07:20:39.652Z,3.92
2023-03-28T07:23:06.554Z,3.13
2023-03-28T07:25:33.810Z,4.03
2023-03-28T07:28:00.499Z,8.40
2023-03-28T07:30:27.356Z,2.60
2023-03-28T07:33:05.833Z,9.27
2023-03-28T07:35:40.682Z,5.63
2023-03-28T07:38:07.476Z,2.35
2023-03-28T07:40:34.099Z,5.03
2023-03-28T07:43:00.987Z,5.90
2023-03-28T07:45:27.758Z,6.68
2023-03-28T07:47:54.413Z,2.78
2023-03-28T07:50:23.569Z,7.18
2023-03-28T07:52:52.585Z,5.18
2023-03-28T07:55:19.328Z,4.82
2023-03-28T07:57:48.257Z,4.83
2023-03-28T08:00:15.633Z,7.07
2023-03-28T08:02:44.891Z,6.10
2023-03-28T08:05:11.953Z,5.95
2023-03-28T08:07:38.866Z,5.00
2023-03-28T08:10:06.255Z,5.30
2023-03-28T08:12:33.842Z,6.53
2023-03-28T08:15:00.692Z,4.63
2023-03-28T08:17:27.456Z,5.82
2023-03-28T08:19:54.232Z,4.25
2023-03-28T08:22:21.173Z,6.82
2023-03-28T08:24:47.896Z,5.90
2023-03-28T08:27:14.674Z,5.63
2023-03-28T08:29:41.649Z,5.03
2023-03-28T08:32:08.405Z,6.35
2023-03-28T08:34:35.476Z,5.07
2023-03-28T08:37:05.521Z,6.38
2023-03-28T08:39:33.542Z,9.00
2023-03-28T08:42:40.896Z,5.97
2023-03-28T08:45:24.615Z,5.47
2023-03-28T08:48:12.243Z,4.27
2023-03-28T08:50:49.468Z,5.10
2023-03-28T08:53:26.459Z,5.82
2023-03-28T08:55:55.113Z,5.80
2023-03-28T08:58:23.436Z,5.22
2023-03-28T09:00:52.056Z,7.78
2023-03-28T09:03:21.736Z,2.95
2023-03-28T09:06:07.747Z,3.38
2023-03-28T09:08:49.869Z,4.25
2023-03-28T09:11:37.501Z,6.25
2023-03-28T09:14:34.534Z,1.80
2023-03-28T09:17:08.498Z,2.35
2023-03-28T09:19:56.413Z,4.50
2023-03-28T09:22:28.334Z,2.63
2023-03-28T09:25:34.832Z,4.97
2023-03-28T09:28:23.731Z,3.38
2023-03-28T09:30:52.581Z,6.50
2023-03-28T09:33:28.454Z,2.33
2023-03-28T09:35:57.543Z,4.68
2023-03-28T09:38:39.686Z,6.78
2023-03-28T09:41:14.337Z,3.50
2023-03-28T09:44:01.272Z,2.65
2023-03-28T09:46:48.579Z,4.22
2023-03-28T09:49:18.194Z,4.70
2023-03-28T09:51:46.245Z,3.90
2023-03-28T09:54:13.471Z,2.47
2023-03-28T09:56:43.412Z,5.63
2023-03-28T09:59:21.688Z,3.92
2023-03-28T10:01:51.764Z,1.83
2023-03-28T10:04:32.133Z,6.28
2023-03-28T10:07:14.412Z,5.22
2023-03-28T10:09:58.804Z,5.18
2023-03-28T10:12:32.959Z,2.92
2023-03-28T10:14:59.761Z,3.75
2023-03-28T10:17:36.693Z,3.15
2023-03-28T10:20:17.863Z,2.85
2023-03-28T10:22:47.192Z,4.13
2023-03-28T10:25:20.662Z,3.50
2023-03-28T10:27:48.465Z,3.67
2023-03-28T10:30:33.762Z,3.80
2023-03-28T10:33:17.254Z,1.88
2023-03-28T10:35:48.476Z,6.72
2023-03-28T10:38:18.235Z,4.47
2023-03-28T10:41:04.029Z,3.25
2023-03-28T10:43:33.916Z,7.28
2023-03-28T10:46:05.152Z,3.10
2023-03-28T10:48:34.955Z,2.78
2023-03-28T10:51:08.833Z,2.45
2023-03-28T10:54:02.163Z,5.43
2023-03-28T10:56:33.904Z,2.38
2023-03-28T10:59:14.467Z,3.92
2023-03-28T11:01:53.638Z,2.33
2023-03-28T11:04:43.497Z,2.33
2023-03-28T11:07:30.780Z,3.05
2023-03-28T11:10:06.010Z,3.65
2023-03-28T11:13:12.622Z,4.55
2023-03-28T11:15:45.748Z,4.13
2023-03-28T11:18:43.679Z,4.72
2023-03-28T11:21:13.112Z,1.55
2023-03-28T11:23:55.939Z,3.88
2023-03-28T11:26:34.210Z,3.17
2023-03-28T11:29:14.671Z,2.78
2023-03-28T11:32:08.706Z,2.42
2023-03-28T11:34:39.712Z,2.83
2023-03-28T11:37:19.472Z,4.28
2023-03-28T11:39:53.954Z,2.28
2023-03-28T11:42:31.722Z,3.97
2023-03-28T11:45:49.451Z,2.28
2023-03-28T11:48:29.961Z,2.65
2023-03-28T11:51:04.411Z,2.45
2023-03-28T11:53:39.920Z,4.70
2023-03-28T11:56:12.900Z,3.88
2023-03-28T11:58:43.551Z,2.45
2023-03-28T12:01:16.323Z,3.10
2023-03-28T12:04:08.773Z,4.07
2023-03-28T12:07:02.161Z,2.65
2023-03-28T12:09:37.800Z,2.25
2023-03-28T12:12:18.141Z,2.35
2023-03-28T12:14:53.643Z,3.28
2023-03-28T12:17:26.901Z,2.25
2023-03-28T12:19:54.098Z,4.18
2023-03-28T12:22:32.412Z,3.35
2023-03-28T12:25:11.921Z,2.28
2023-03-28T12:28:04.567Z,2.85
2023-03-28T12:30:36.654Z,1.33
2023-03-28T12:33:31.033Z,1.30
2023-03-28T12:36:24.214Z,2.15
2023-03-28T12:39:14.463Z,2.35
2023-03-28T12:41:41.490Z,1.15
2023-03-28T12:44:17.769Z,2.20
2023-03-28T12:46:47.357Z,1.80
2023-03-28T12:49:18.367Z,1.98
2023-03-28T12:51:50.511Z,2.60
2023-03-28T12:54:17.213Z,2.17
2023-03-28T12:56:48.009Z,0.80
2023-03-28T12:59:35.959Z,3.92
2023-03-28T13:02:29.022Z,3.03
2023-03-28T13:05:20.769Z,2.65
2023-03-28T13:08:04.046Z,4.00
2023-03-28T13:11:11.023Z,2.85
2023-03-28T13:14:04.343Z,4.28
2023-03-28T13:17:10.296Z,4.55
2023-03-28T13:19:55.993Z,3.05
2023-03-28T13:22:32.443Z,3.75
2023-03-28T13:25:22.335Z,1.67
2023-03-28T13:27:51.120Z,5.13
2023-03-28T13:30:21.088Z,2.35
2023-03-28T13:32:53.758Z,3.13
2023-03-28T13:35:40.445Z,2.45
2023-03-28T13:38:27.586Z,1.20
2023-03-28T13:41:02.079Z,1.15
2023-03-28T13:43:46.482Z,2.75
2023-03-28T13:46:16.079Z,3.45
2023-03-28T13:48:53.346Z,2.17
2023-03-28T13:51:27.351Z,2.47
2023-03-28T13:53:54.032Z,2.55
2023-03-28T13:56:36.593Z,2.67
2023-03-28T13:59:07.853Z,3.53
2023-03-28T14:01:57.378Z,3.22
2023-03-28T14:04:27.448Z,1.67
2023-03-28T14:06:55.524Z,2.58
2023-03-28T14:09:29.550Z,3.88
2023-03-28T14:12:02.960Z,1.42
2023-03-28T14:14:31.820Z,2.50
2023-03-28T14:17:03.678Z,3.08
2023-03-28T14:19:38.416Z,1.67
2023-03-28T14:22:13.392Z,3.17
2023-03-28T14:24:40.307Z,3.63
2023-03-28T14:27:11.865Z,2.35
2023-03-28T14:29:58.549Z,1.90
2023-03-28T14:32:31.841Z,1.73
2023-03-28T14:35:19.028Z,3.50
2023-03-28T14:37:48.902Z,1.80
2023-03-28T14:40:18.937Z,2.17
2023-03-28T14:42:48.312Z,2.78
2023-03-28T14:45:15.140Z,2.08
2023-03-28T14:47:42.500Z,3.58
2023-03-28T14:50:15.697Z,1.92
2023-03-28T14:52:44.486Z,2.20
2023-03-28T14:55:19.761Z,2.53
2023-03-28T14:57:48.602Z,3.00
2023-03-28T15:00:22.195Z,3.33
2023-03-28T15:02:52.428Z,2.10
2023-03-28T15:05:22.090Z,2.22
2023-03-28T15:08:00.614Z,2.40
2023-03-28T15:10:29.095Z,1.73
2023-03-28T15:13:17.356Z,3.70
2023-03-28T15:15:47.194Z,1.67
2023-03-28T15:18:17.540Z,3.83
2023-03-28T15:20:49.001Z,1.98
2023-03-28T15:23:25.321Z,3.08
2023-03-28T15:25:53.036Z,3.35
2023-03-28T15:28:20.586Z,1.65
2023-03-28T15:30:49.401Z,3.75
2023-03-28T15:33:20.891Z,3.85
2023-03-28T15:35:48.792Z,2.13
2023-03-28T15:38:21.579Z,1.60
2023-03-28T15:40:51.164Z,2.42
2023-03-28T15:43:56.009Z,1.17
2023-03-28T15:46:29.935Z,2.45
2023-03-28T15:48:59.751Z,2.65
2023-03-28T15:51:27.619Z,2.53
2023-03-28T15:53:56.008Z,1.98
2023-03-28T15:56:26.958Z,3.08
2023-03-28T15:59:02.259Z,4.63
2023-03-28T16:01:32.520Z,2.53
2023-03-28T16:04:21.628Z,4.70
2023-03-28T16:06:49.147Z,3.65
2023-03-28T16:09:21.644Z,1.83
2023-03-28T16:11:56.902Z,3.47
2023-03-28T16:14:23.708Z,1.65
2023-03-28T16:16:55.076Z,2.72
2023-03-28T16:19:25.672Z,3.40
2023-03-28T16:21:53.230Z,2.53
2023-03-28T16:24:20.532Z,2.17
2023-03-28T16:26:48.371Z,3.45
2023-03-28T16:29:15.087Z,2.95
2023-03-28T16:31:42.205Z,2.35
2023-03-28T16:34:10.211Z,2.17
2023-03-28T16:36:37.964Z,3.88
2023-03-28T16:39:06.289Z,2.63
2023-03-28T16:41:33.065Z,1.77
2023-03-28T16:43:59.832Z,2.80
2023-03-28T16:46:26.665Z,2.47
2023-03-28T16:48:53.342Z,2.83
2023-03-28T16:51:20.336Z,2.17
2023-03-28T16:53:48.154Z,2.13
2023-03-28T16:56:15.417Z,4.43
2023-03-28T16:58:42.703Z,1.50
2023-03-28T17:01:12.490Z,2.42
2023-03-28T17:03:39.440Z,1.63
2023-03-28T17:06:08.101Z,2.10
2023-03-28T17:08:36.397Z,2.95
2023-03-28T17:11:06.820Z,2.88
2023-03-28T17:13:34.568Z,2.42
2023-03-28T17:16:02.036Z,3.20
2023-03-28T17:18:29.883Z,2.25
2023-03-28T17:20:59.569Z,2.28
2023-03-28T17:23:27.360Z,2.70
2023-03-28T17:25:55.439Z,2.25
2023-03-28T17:28:23.427Z,1.90
2023-03-28T17:30:50.654Z,3.63
2023-03-28T17:33:17.892Z,3.10
2023-03-28T17:35:44.934Z,2.00
2023-03-28T17:38:12.056Z,3.72
2023-03-28T17:40:40.986Z,4.65
2023-03-28T17:43:08.385Z,2.70
2023-03-28T17:45:37.521Z,2.33
2023-03-28T17:48:04.709Z,3.90
2023-03-28T17:50:31.392Z,4.43
2023-03-28T17:52:58.910Z,3.05
2023-03-28T17:55:25.856Z,1.65
2023-03-28T17:57:52.821Z,3.13
2023-03-28T18:00:20.146Z,4.75
2023-03-28T18:02:48.282Z,2.67
2023-03-28T18:05:16.910Z,2.70
2023-03-28T18:07:43.847Z,2.63
2023-03-28T18:10:10.669Z,2.13
2023-03-28T18:12:37.443Z,3.50
2023-03-28T18:15:05.513Z,2.60
2023-03-28T18:17:32.318Z,2.08
2023-03-28T18:19:59.463Z,2.08
2023-03-28T18:22:27.026Z,1.30
2023-03-28T18:24:54.501Z,2.55
2023-03-28T18:27:21.428Z,3.38
2023-03-28T18:29:49.302Z,1.92
2023-03-28T18:32:16.530Z,2.80
2023-03-28T18:34:46.050Z,1.88
2023-03-28T18:37:12.934Z,2.08
2023-03-28T18:39:42.284Z,1.63
2023-03-28T18:42:09.447Z,2.50
2023-03-28T18:44:37.167Z,4.47
2023-03-28T18:47:05.253Z,2.47
2023-03-28T18:49:32.790Z,2.00
2023-03-28T18:52:04.265Z,2.97
2023-03-28T18:54:32.433Z,2.85
2023-03-28T18:56:59.938Z,1.73
2023-03-28T18:59:27.479Z,2.22
2023-03-28T19:01:54.993Z,2.67
2023-03-28T19:04:23.804Z,3.85
2023-03-28T19:06:52.450Z,4.00
2023-03-28T19:09:20.060Z,5.50
2023-03-28T19:11:47.164Z,6.07
2023-03-28T19:14:14.431Z,4.00
2023-03-28T19:16:41.829Z,3.08
2023-03-28T19:19:09.930Z,1.40
2023-03-28T19:21:37.181Z,1.83
2023-03-28T19:24:04.512Z,1.50
2023-03-28T19:26:31.773Z,1.65
2023-03-28T19:28:59.003Z,1.23
2023-03-28T19:31:26.512Z,1.45
2023-03-28T19:33:53.716Z,4.57
2023-03-28T19:36:21.169Z,1.48
2023-03-28T19:38:48.750Z,9.20
2023-03-28T19:41:20.524Z,3.25
2023-03-28T19:43:48.699Z,3.63
2023-03-28T19:46:18.878Z,3.40
2023-03-28T19:48:46.332Z,1.52
2023-03-28T19:51:14.157Z,1.88
2023-03-28T19:53:41.664Z,2.67
2023-03-28T19:56:11.824Z,2.43
2023-03-28T19:58:38.924Z,4.93
2023-03-28T20:01:06.705Z,33.45
2023-03-28T20:03:34.226Z,44.38
2023-03-28T20:06:04.541Z,31.30
2023-03-28T20:08:31.712Z,46.47
2023-03-28T20:10:58.960Z,32.95
2023-03-28T20:13:26.197Z,34.17
2023-03-28T20:15:53.521Z,22.95
2023-03-28T20:18:20.829Z,9.93
2023-03-28T20:20:50.682Z,10.23
2023-03-28T20:23:19.853Z,4.25
2023-03-28T20:25:47.698Z,3.05
2023-03-28T20:28:14.790Z,4.82
2023-03-28T20:30:42.262Z,3.58
2023-03-28T20:33:09.440Z,1.98
2023-03-28T20:35:37.185Z,2.85
2023-03-28T20:38:04.825Z,1.80
2023-03-28T20:40:31.913Z,2.90
2023-03-28T20:43:01.878Z,4.15
2023-03-28T20:45:29.260Z,2.60
2023-03-28T20:47:58.613Z,2.53
2023-03-28T20:50:33.624Z,5.78
2023-03-28T20:53:01.934Z,2.00
2023-03-28T20:55:31.100Z,2.83
2023-03-28T20:57:58.502Z,4.57
2023-03-28T21:00:32.006Z,2.83
2023-03-28T21:02:59.687Z,6.18
2023-03-28T21:05:27.495Z,3.85
2023-03-28T21:07:55.549Z,4.38
2023-03-28T21:10:23.141Z,6.60
2023-03-28T21:12:50.830Z,4.25
2023-03-28T21:15:18.135Z,3.55
2023-03-28T21:17:49.070Z,7.38
2023-03-28T21:20:16.235Z,5.07
2023-03-28T21:22:43.372Z,4.18
2023-03-28T21:25:10.721Z,4.40
2023-03-28T21:27:38.060Z,8.35
2023-03-28T21:30:08.001Z,4.65
2023-03-28T21:32:35.842Z,3.60
2023-03-28T21:35:04.048Z,7.40
2023-03-28T21:37:31.258Z,6.20
2023-03-28T21:39:58.410Z,9.57
2023-03-28T21:42:26.311Z,7.25
2023-03-28T21:44:53.447Z,8.60
2023-03-28T21:47:20.604Z,4.53
2023-03-28T21:49:49.412Z,3.72
2023-03-28T21:52:16.530Z,4.53
2023-03-28T21:54:43.640Z,6.68
2023-03-28T21:57:10.809Z,6.35
2023-03-28T21:59:38.331Z,3.00
2023-03-28T22:02:06.605Z,4.13
2023-03-28T22:04:33.723Z,4.53
2023-03-28T22:07:00.839Z,3.78
2023-03-28T22:09:27.950Z,3.20
2023-03-28T22:11:55.836Z,3.28
2023-03-28T22:14:22.888Z,2.42
2023-03-28T22:16:50.490Z,4.05
2023-03-28T22:19:18.771Z,3.00
2023-03-28T22:21:48.548Z,3.30
2023-03-28T22:24:15.939Z,3.47
2023-03-28T22:26:44.814Z,3.25
2023-03-28T22:29:12.015Z,5.63
2023-03-28T22:31:39.172Z,3.97
2023-03-28T22:34:07.075Z,4.22
2023-03-28T22:36:34.150Z,3.72
2023-03-28T22:39:01.243Z,4.93
2023-03-28T22:41:31.713Z,6.20
2023-03-28T22:43:59.153Z,4.85
2023-03-28T22:46:26.293Z,5.55
2023-03-28T22:48:58.216Z,3.58
2023-03-28T22:51:27.609Z,2.92
2023-03-28T22:53:58.844Z,4.30
2023-03-28T22:56:27.183Z,3.35
2023-03-28T22:58:54.441Z,3.70
2023-03-28T23:01:23.018Z,3.30
2023-03-28T23:03:50.484Z,2.63
2023-03-28T23:06:17.564Z,4.30
2023-03-28T23:08:44.643Z,4.15
2023-03-28T23:11:11.749Z,4.50
2023-03-28T23:13:38.897Z,3.42
2023-03-28T23:16:07.477Z,4.32
2023-03-28T23:18:34.596Z,3.85
2023-03-28T23:21:01.913Z,2.65
2023-03-28T23:23:29.516Z,5.05
2023-03-28T23:25:57.515Z,5.28
2023-03-28T23:28:24.724Z,4.50
2023-03-28T23:30:51.796Z,3.25
2023-03-28T23:33:18.934Z,4.38
2023-03-28T23:35:48.164Z,3.35
2023-03-28T23:38:17.381Z,3.85
2023-03-28T23:40:45.340Z,6.55
2023-03-28T23:43:12.391Z,3.97
2023-03-28T23:45:39.554Z,4.85
2023-03-28T23:48:07.610Z,4.68
2023-03-28T23:50:34.721Z,3.22
2023-03-28T23:53:01.784Z,5.20
2023-03-28T23:55:29.819Z,4.10
2023-03-28T23:57:57.073Z,4.95
